createdAt,value
2022-11-05T00:00:15.406Z,51.80
2022-11-05T00:03:00.798Z,51.80
2022-11-05T00:05:46.331Z,51.90
2022-11-05T00:08:32.175Z,51.90
2022-11-05T00:11:01.594Z,51.90
2022-11-05T00:13:46.865Z,51.90
2022-11-05T00:16:34.509Z,51.90
2022-11-05T00:19:08.253Z,51.80
2022-11-05T00:21:51.540Z,51.80
2022-11-05T00:24:36.909Z,51.90
2022-11-05T00:27:06.444Z,51.80
2022-11-05T00:29:35.100Z,51.80
2022-11-05T00:32:03.733Z,51.90
2022-11-05T00:34:32.472Z,51.90
2022-11-05T00:37:01.111Z,52.00
2022-11-05T00:39:31.711Z,52.00
2022-11-05T00:42:16.789Z,52.00
2022-11-05T00:45:05.255Z,52.00
2022-11-05T00:47:52.151Z,52.00
2022-11-05T00:50:21.871Z,51.90
2022-11-05T00:52:59.499Z,51.90
2022-11-05T00:55:31.145Z,51.90
2022-11-05T00:57:59.195Z,51.80
2022-11-05T01:00:31.117Z,51.80
2022-11-05T01:03:00.495Z,51.90
2022-11-05T01:05:29.273Z,51.80
2022-11-05T01:07:57.913Z,51.80
2022-11-05T01:10:26.385Z,51.90
2022-11-05T01:12:54.748Z,51.90
2022-11-05T01:15:23.354Z,52.00
2022-11-05T01:17:53.559Z,52.00
2022-11-05T01:20:21.420Z,51.90
2022-11-05T01:22:49.309Z,51.80
2022-11-05T01:25:17.331Z,51.80
2022-11-05T01:27:45.219Z,51.80
2022-11-05T01:30:14.190Z,51.80
2022-11-05T01:32:42.223Z,51.80
2022-11-05T01:35:14.635Z,51.70
2022-11-05T01:37:43.191Z,51.80
2022-11-05T01:40:14.045Z,51.70
2022-11-05T01:42:42.116Z,51.70
2022-11-05T01:45:17.081Z,51.60
2022-11-05T01:48:01.388Z,51.70
2022-11-05T01:50:38.409Z,51.70
2022-11-05T01:53:13.807Z,51.70
2022-11-05T01:55:45.156Z,51.70
2022-11-05T01:58:17.397Z,51.70
2022-11-05T02:00:45.629Z,51.60
2022-11-05T02:03:15.948Z,51.60
2022-11-05T02:05:46.372Z,52.10
2022-11-05T02:08:22.924Z,51.60
2022-11-05T02:10:51.491Z,51.70
2022-11-05T02:13:19.371Z,51.60
2022-11-05T02:15:59.831Z,51.60
2022-11-05T02:18:37.963Z,51.70
2022-11-05T02:21:40.240Z,51.60
2022-11-05T02:24:37.781Z,51.70
2022-11-05T02:27:18.735Z,51.60
2022-11-05T02:30:22.499Z,51.50
2022-11-05T02:33:01.580Z,51.60
2022-11-05T02:35:53.450Z,51.50
2022-11-05T02:38:30.001Z,51.60
2022-11-05T02:41:05.688Z,51.60
2022-11-05T02:43:46.588Z,51.60
2022-11-05T02:46:26.616Z,51.60
2022-11-05T02:49:00.865Z,51.50
2022-11-05T02:51:36.298Z,51.60
2022-11-05T02:54:10.616Z,51.60
2022-11-05T02:56:42.776Z,51.70
2022-11-05T02:59:10.761Z,51.70
2022-11-05T03:01:40.179Z,51.70
2022-11-05T03:04:13.291Z,51.90
2022-11-05T03:07:02.916Z,52.00
2022-11-05T03:10:02.389Z,52.10
2022-11-05T03:12:40.872Z,52.20
2022-11-05T03:15:17.565Z,52.20
2022-11-05T03:17:54.337Z,52.20
2022-11-05T03:20:31.394Z,52.30
2022-11-05T03:23:10.439Z,52.40
2022-11-05T03:25:44.222Z,52.40
2022-11-05T03:28:14.124Z,52.50
2022-11-05T03:30:44.708Z,52.50
2022-11-05T03:33:18.024Z,52.50
2022-11-05T03:35:51.921Z,52.60
2022-11-05T03:38:23.575Z,52.60
2022-11-05T03:40:55.512Z,52.60
2022-11-05T03:43:26.759Z,52.60
2022-11-05T03:45:58.494Z,52.60
2022-11-05T03:48:30.132Z,52.70
2022-11-05T03:51:04.256Z,52.70
2022-11-05T03:53:37.953Z,52.80
2022-11-05T03:56:11.481Z,52.80
2022-11-05T03:58:43.971Z,52.80
2022-11-05T04:01:12.315Z,52.70
2022-11-05T04:03:40.316Z,51.90
2022-11-05T04:06:28.988Z,51.90
2022-11-05T04:09:14.575Z,52.00
2022-11-05T04:11:59.808Z,51.90
2022-11-05T04:14:27.714Z,51.90
2022-11-05T04:17:15.517Z,51.90
2022-11-05T04:20:02.330Z,51.90
2022-11-05T04:22:51.101Z,52.00
2022-11-05T04:25:20.222Z,52.00
2022-11-05T04:27:48.276Z,52.00
2022-11-05T04:30:20.783Z,52.10
2022-11-05T04:33:06.545Z,52.10
2022-11-05T04:35:36.310Z,52.20
2022-11-05T04:38:07.395Z,52.00
2022-11-05T04:40:36.015Z,52.10
2022-11-05T04:43:04.317Z,52.10
2022-11-05T04:45:35.253Z,52.10
2022-11-05T04:48:03.345Z,52.10
2022-11-05T04:50:31.357Z,52.10
2022-11-05T04:52:59.335Z,52.10
2022-11-05T04:55:28.871Z,52.20
2022-11-05T04:57:57.276Z,52.20
2022-11-05T05:00:25.701Z,52.10
2022-11-05T05:02:53.693Z,52.20
2022-11-05T05:05:22.984Z,52.20
2022-11-05T05:07:50.884Z,52.10
2022-11-05T05:10:18.950Z,52.20
2022-11-05T05:12:48.463Z,52.20
2022-11-05T05:15:16.545Z,52.20
2022-11-05T05:17:44.464Z,52.20
2022-11-05T05:20:26.221Z,52.20
2022-11-05T05:22:54.608Z,52.20
2022-11-05T05:25:23.214Z,52.30
2022-11-05T05:27:52.550Z,52.30
2022-11-05T05:30:20.450Z,52.20
2022-11-05T05:32:48.365Z,52.20
2022-11-05T05:35:16.411Z,52.30
2022-11-05T05:37:44.708Z,52.20
2022-11-05T05:40:12.920Z,52.20
2022-11-05T05:42:43.369Z,52.20
2022-11-05T05:45:13.323Z,52.20
2022-11-05T05:47:41.187Z,52.30
2022-11-05T05:50:09.325Z,52.30
2022-11-05T05:52:37.268Z,52.40
2022-11-05T05:55:05.606Z,52.30
2022-11-05T05:57:33.476Z,52.30
2022-11-05T06:00:01.994Z,52.30
2022-11-05T06:02:32.771Z,52.30
2022-11-05T06:05:00.676Z,52.40
2022-11-05T06:07:31.864Z,52.30
2022-11-05T06:10:04.288Z,52.30
2022-11-05T06:12:32.197Z,52.30
2022-11-05T06:15:00.145Z,52.30
2022-11-05T06:17:28.131Z,52.30
2022-11-05T06:19:57.399Z,52.30
2022-11-05T06:22:25.343Z,52.30
2022-11-05T06:24:53.223Z,52.40
2022-11-05T06:27:21.080Z,52.40
2022-11-05T06:29:48.987Z,52.40
2022-11-05T06:32:16.894Z,52.40
2022-11-05T06:34:44.762Z,52.40
2022-11-05T06:37:14.062Z,52.40
2022-11-05T06:39:41.972Z,52.50
2022-11-05T06:42:18.307Z,52.60
2022-11-05T06:44:46.819Z,52.60
2022-11-05T06:47:14.672Z,52.60
2022-11-05T06:49:42.600Z,52.60
2022-11-05T06:52:10.523Z,52.60
2022-11-05T06:54:40.198Z,52.70
2022-11-05T06:57:09.581Z,52.70
2022-11-05T06:59:37.933Z,52.80
2022-11-05T07:02:06.516Z,52.70
2022-11-05T07:04:34.827Z,52.80
2022-11-05T07:07:02.976Z,52.80
2022-11-05T07:09:31.225Z,52.80
2022-11-05T07:12:00.514Z,52.80
2022-11-05T07:14:28.498Z,52.80
2022-11-05T07:16:57.990Z,52.90
2022-11-05T07:19:25.860Z,53.00
2022-11-05T07:21:53.743Z,53.00
2022-11-05T07:24:21.673Z,53.00
2022-11-05T07:26:49.543Z,53.10
2022-11-05T07:29:18.758Z,53.20
2022-11-05T07:31:47.491Z,53.30
2022-11-05T07:34:15.442Z,53.40
2022-11-05T07:36:43.299Z,53.40
2022-11-05T07:39:11.226Z,53.60
2022-11-05T07:41:39.148Z,53.50
2022-11-05T07:44:07.286Z,53.50
2022-11-05T07:46:36.648Z,53.60
2022-11-05T07:49:04.813Z,53.50
2022-11-05T07:51:32.724Z,53.60
2022-11-05T07:54:00.617Z,53.50
2022-11-05T07:56:28.504Z,53.50
2022-11-05T07:58:56.482Z,53.60
2022-11-05T08:01:24.958Z,53.70
2022-11-05T08:03:54.815Z,53.70
2022-11-05T08:06:22.715Z,53.80
2022-11-05T08:08:50.574Z,53.90
2022-11-05T08:11:18.856Z,54.00
2022-11-05T08:13:46.743Z,54.00
2022-11-05T08:16:15.458Z,54.10
2022-11-05T08:18:44.583Z,54.00
2022-11-05T08:21:13.870Z,53.90
2022-11-05T08:23:42.933Z,54.00
2022-11-05T08:26:11.869Z,54.00
2022-11-05T08:28:39.744Z,54.00
2022-11-05T08:31:07.621Z,54.00
2022-11-05T08:33:35.540Z,54.20
2022-11-05T08:36:04.612Z,54.30
2022-11-05T08:38:33.871Z,54.60
2022-11-05T08:41:02.176Z,54.80
2022-11-05T08:43:30.123Z,55.00
2022-11-05T08:45:58.018Z,55.10
2022-11-05T08:48:25.916Z,55.10
2022-11-05T08:50:53.831Z,55.10
2022-11-05T08:53:21.709Z,55.00
2022-11-05T08:55:51.526Z,54.70
2022-11-05T08:58:20.727Z,54.50
2022-11-05T09:00:50.548Z,54.30
2022-11-05T09:03:18.687Z,54.20
2022-11-05T09:05:46.834Z,54.20
2022-11-05T09:08:16.529Z,54.20
2022-11-05T09:10:45.236Z,54.20
2022-11-05T09:13:18.861Z,54.20
2022-11-05T09:15:48.000Z,54.40
2022-11-05T09:18:15.927Z,54.30
2022-11-05T09:20:43.909Z,54.50
2022-11-05T09:23:14.310Z,54.50
2022-11-05T09:25:42.601Z,54.90
2022-11-05T09:28:16.206Z,55.30
2022-11-05T09:30:48.388Z,55.40
2022-11-05T09:33:17.688Z,55.60
2022-11-05T09:35:46.557Z,55.70
2022-11-05T09:38:14.780Z,55.70
2022-11-05T09:40:48.011Z,56.10
2022-11-05T09:43:21.368Z,55.30
2022-11-05T09:45:54.781Z,55.10
2022-11-05T09:48:28.693Z,55.10
2022-11-05T09:50:58.146Z,55.00
2022-11-05T09:53:26.540Z,55.00
2022-11-05T09:55:56.617Z,55.00
2022-11-05T09:58:40.849Z,55.00
2022-11-05T10:01:15.684Z,55.00
2022-11-05T10:03:47.203Z,54.80
2022-11-05T10:06:21.513Z,54.70
2022-11-05T10:08:55.621Z,54.60
2022-11-05T10:11:30.692Z,54.40
2022-11-05T10:14:02.052Z,54.30
2022-11-05T10:16:35.236Z,54.30
2022-11-05T10:19:09.765Z,54.20
2022-11-05T10:22:04.831Z,54.20
2022-11-05T10:24:26.323Z,54.10
2022-11-05T10:26:55.500Z,54.20
2022-11-05T10:29:29.206Z,54.20
2022-11-05T10:32:00.837Z,54.40
2022-11-05T10:34:32.788Z,54.40
2022-11-05T10:37:00.808Z,54.40
2022-11-05T10:39:36.072Z,54.50
2022-11-05T10:42:15.788Z,55.10
2022-11-05T10:44:48.848Z,54.70
2022-11-05T10:47:48.921Z,54.70
2022-11-05T10:50:19.600Z,55.00
2022-11-05T10:52:58.416Z,54.90
2022-11-05T10:55:29.203Z,55.00
2022-11-05T10:58:09.181Z,54.90
2022-11-05T11:00:37.143Z,55.00
2022-11-05T11:03:10.519Z,54.80
2022-11-05T11:05:41.214Z,55.00
2022-11-05T11:08:24.960Z,55.00
2022-11-05T11:10:55.205Z,55.10
2022-11-05T11:13:25.746Z,55.00
2022-11-05T11:15:55.072Z,55.20
2022-11-05T11:18:34.645Z,55.20
2022-11-05T11:21:12.982Z,55.80
2022-11-05T11:23:42.779Z,55.40
2022-11-05T11:26:12.736Z,55.40
2022-11-05T11:28:45.151Z,55.50
2022-11-05T11:31:15.676Z,55.50
2022-11-05T11:33:51.905Z,55.60
2022-11-05T11:36:25.293Z,55.70
2022-11-05T11:39:00.255Z,55.90
2022-11-05T11:41:32.251Z,56.00
2022-11-05T11:44:04.992Z,55.90
2022-11-05T11:46:35.411Z,55.90
2022-11-05T11:49:05.923Z,55.80
2022-11-05T11:51:37.609Z,55.70
2022-11-05T11:54:06.681Z,55.70
2022-11-05T11:56:44.669Z,56.90
2022-11-05T11:59:40.433Z,58.50
2022-11-05T12:02:35.955Z,58.80
2022-11-05T12:05:17.808Z,59.20
2022-11-05T12:07:52.963Z,58.60
2022-11-05T12:10:33.344Z,57.60
2022-11-05T12:13:22.925Z,56.70
2022-11-05T12:15:54.070Z,56.20
2022-11-05T12:18:31.093Z,55.70
2022-11-05T12:21:08.439Z,55.40
2022-11-05T12:23:50.135Z,54.90
2022-11-05T12:26:27.756Z,54.70
2022-11-05T12:29:18.918Z,54.60
2022-11-05T12:31:57.347Z,54.40
2022-11-05T12:34:40.490Z,54.30
2022-11-05T12:37:23.949Z,54.40
2022-11-05T12:40:03.984Z,54.50
2022-11-05T12:42:43.798Z,54.60
2022-11-05T12:45:28.272Z,54.80
2022-11-05T12:48:11.587Z,54.80
2022-11-05T12:50:45.831Z,54.90
2022-11-05T12:53:41.649Z,55.00
2022-11-05T12:56:15.065Z,55.10
2022-11-05T12:58:46.884Z,55.00
2022-11-05T13:01:18.909Z,55.00
2022-11-05T13:03:50.532Z,55.20
2022-11-05T13:06:22.975Z,55.30
2022-11-05T13:09:02.577Z,55.40
2022-11-05T13:11:35.789Z,55.40
2022-11-05T13:14:12.329Z,55.30
2022-11-05T13:16:45.396Z,55.30
2022-11-05T13:19:20.078Z,55.80
2022-11-05T13:21:54.302Z,55.00
2022-11-05T13:24:26.280Z,54.90
2022-11-05T13:26:57.912Z,54.70
2022-11-05T13:29:32.337Z,54.70
2022-11-05T13:32:05.342Z,54.60
2022-11-05T13:34:37.631Z,54.50
2022-11-05T13:37:24.979Z,54.50
2022-11-05T13:39:57.684Z,54.50
2022-11-05T13:42:57.530Z,54.50
2022-11-05T13:45:54.826Z,54.60
2022-11-05T13:49:04.563Z,54.50
2022-11-05T13:51:50.460Z,54.50
2022-11-05T13:54:54.667Z,54.50
2022-11-05T13:57:38.355Z,54.50
2022-11-05T14:00:16.945Z,54.30
2022-11-05T14:02:48.094Z,54.30
2022-11-05T14:05:31.579Z,54.20
2022-11-05T14:08:01.974Z,54.20
2022-11-05T14:10:36.839Z,54.20
2022-11-05T14:13:18.806Z,54.20
2022-11-05T14:16:02.977Z,54.40
2022-11-05T14:18:41.451Z,54.50
2022-11-05T14:21:32.292Z,54.50
2022-11-05T14:24:01.133Z,54.50
2022-11-05T14:26:32.161Z,54.40
2022-11-05T14:29:41.278Z,54.30
2022-11-05T14:32:27.937Z,54.30
2022-11-05T14:35:01.509Z,54.20
2022-11-05T14:37:36.927Z,54.00
2022-11-05T14:40:28.019Z,54.10
2022-11-05T14:42:57.569Z,54.20
2022-11-05T14:45:31.302Z,54.10
2022-11-05T14:48:01.346Z,54.20
2022-11-05T14:50:35.696Z,54.10
2022-11-05T14:53:11.497Z,54.10
2022-11-05T14:55:42.917Z,54.20
2022-11-05T14:58:32.417Z,54.20
2022-11-05T15:01:03.445Z,54.40
2022-11-05T15:03:46.757Z,54.30
2022-11-05T15:06:36.657Z,54.40
2022-11-05T15:09:30.466Z,54.50
2022-11-05T15:12:10.449Z,54.40
2022-11-05T15:14:48.024Z,54.30
2022-11-05T15:17:24.130Z,54.30
2022-11-05T15:19:53.982Z,54.20
2022-11-05T15:22:30.320Z,54.10
2022-11-05T15:24:58.555Z,54.00
2022-11-05T15:27:44.888Z,53.90
2022-11-05T15:30:16.960Z,54.00
2022-11-05T15:32:46.486Z,54.00
2022-11-05T15:35:23.513Z,54.00
2022-11-05T15:37:57.328Z,54.00
2022-11-05T15:40:31.097Z,54.00
2022-11-05T15:43:16.379Z,54.00
2022-11-05T15:45:44.345Z,53.90
2022-11-05T15:48:20.844Z,53.80
2022-11-05T15:50:48.818Z,53.80
2022-11-05T15:53:44.179Z,53.70
2022-11-05T15:56:11.864Z,53.70
2022-11-05T15:58:46.305Z,53.60
2022-11-05T16:01:23.349Z,53.70
2022-11-05T16:03:53.671Z,53.80
2022-11-05T16:06:22.175Z,53.70
2022-11-05T16:08:51.214Z,53.80
2022-11-05T16:11:23.257Z,53.90
2022-11-05T16:13:51.637Z,53.90
2022-11-05T16:16:31.605Z,53.80
2022-11-05T16:19:01.072Z,53.80
2022-11-05T16:21:29.208Z,53.80
2022-11-05T16:23:59.457Z,53.80
2022-11-05T16:27:04.013Z,53.80
2022-11-05T16:29:27.924Z,53.90
2022-11-05T16:31:57.457Z,53.90
2022-11-05T16:34:31.030Z,53.80
2022-11-05T16:37:00.699Z,53.90
2022-11-05T16:39:28.786Z,53.90
2022-11-05T16:41:56.698Z,53.90
2022-11-05T16:44:24.743Z,53.90
2022-11-05T16:46:53.487Z,53.90
2022-11-05T16:49:21.373Z,53.90
2022-11-05T16:51:50.626Z,53.90
2022-11-05T16:54:18.520Z,54.00
2022-11-05T16:56:47.382Z,54.00
2022-11-05T16:59:15.340Z,53.90
2022-11-05T17:01:44.385Z,54.00
2022-11-05T17:04:14.372Z,54.10
2022-11-05T17:06:43.701Z,54.00
2022-11-05T17:09:12.960Z,54.00
2022-11-05T17:11:40.834Z,54.10
2022-11-05T17:14:10.431Z,54.10
2022-11-05T17:16:39.285Z,54.10
2022-11-05T17:19:08.270Z,54.10
2022-11-05T17:21:36.612Z,54.10
2022-11-05T17:24:04.709Z,54.10
2022-11-05T17:26:34.678Z,54.10
2022-11-05T17:29:02.734Z,54.10
2022-11-05T17:31:30.632Z,54.10
2022-11-05T17:33:59.105Z,54.10
2022-11-05T17:36:27.474Z,54.10
2022-11-05T17:38:55.581Z,54.20
2022-11-05T17:41:25.177Z,54.20
2022-11-05T17:43:56.736Z,54.20
2022-11-05T17:46:25.529Z,54.20
2022-11-05T17:48:53.508Z,54.10
2022-11-05T17:51:21.916Z,54.10
2022-11-05T17:53:50.090Z,54.10
2022-11-05T17:56:30.587Z,54.10
2022-11-05T17:59:03.064Z,54.20
2022-11-05T18:01:33.117Z,54.10
2022-11-05T18:04:07.136Z,54.20
2022-11-05T18:06:36.923Z,54.20
2022-11-05T18:09:05.131Z,54.20
2022-11-05T18:11:33.423Z,54.20
2022-11-05T18:14:02.809Z,54.20
2022-11-05T18:16:30.905Z,54.30
2022-11-05T18:18:58.841Z,54.20
2022-11-05T18:21:27.090Z,54.20
2022-11-05T18:23:55.111Z,54.20
2022-11-05T18:26:23.137Z,54.20
2022-11-05T18:28:51.071Z,54.20
2022-11-05T18:31:22.140Z,54.20
2022-11-05T18:33:51.444Z,54.20
2022-11-05T18:36:19.623Z,54.30
2022-11-05T18:38:47.844Z,54.20
2022-11-05T18:41:16.364Z,54.30
2022-11-05T18:43:44.269Z,54.20
2022-11-05T18:46:29.393Z,54.20
2022-11-05T18:49:02.452Z,54.20
2022-11-05T18:51:30.517Z,54.20
2022-11-05T18:53:58.433Z,54.20
2022-11-05T18:56:26.428Z,54.30
2022-11-05T18:59:22.014Z,54.30
2022-11-05T19:01:43.423Z,54.30
2022-11-05T19:04:12.816Z,54.20
2022-11-05T19:06:41.453Z,54.30
2022-11-05T19:09:12.670Z,54.20
2022-11-05T19:11:41.789Z,54.30
2022-11-05T19:14:09.713Z,54.20
2022-11-05T19:16:37.848Z,54.20
2022-11-05T19:19:07.025Z,54.20
2022-11-05T19:21:36.326Z,54.20
2022-11-05T19:24:04.670Z,54.20
2022-11-05T19:26:33.051Z,54.20
2022-11-05T19:29:03.047Z,54.20
2022-11-05T19:31:32.123Z,54.20
2022-11-05T19:34:01.288Z,54.20
2022-11-05T19:36:29.283Z,54.10
2022-11-05T19:39:00.117Z,54.10
2022-11-05T19:41:28.981Z,54.10
2022-11-05T19:43:57.967Z,54.10
2022-11-05T19:46:26.632Z,54.10
2022-11-05T19:48:54.784Z,54.10
2022-11-05T19:51:24.967Z,54.10
2022-11-05T19:53:53.739Z,54.10
2022-11-05T19:56:25.754Z,54.20
2022-11-05T19:58:54.014Z,54.20
2022-11-05T20:01:23.655Z,54.20
2022-11-05T20:03:52.288Z,54.20
2022-11-05T20:06:22.780Z,54.10
2022-11-05T20:09:19.906Z,54.20
2022-11-05T20:11:40.969Z,54.10
2022-11-05T20:14:10.847Z,54.10
2022-11-05T20:16:39.948Z,54.20
2022-11-05T20:19:09.601Z,54.20
2022-11-05T20:21:37.892Z,54.10
2022-11-05T20:24:06.468Z,54.00
2022-11-05T20:26:34.883Z,53.90
2022-11-05T20:29:04.310Z,53.80
2022-11-05T20:31:32.484Z,53.80
2022-11-05T20:34:00.372Z,53.80
2022-11-05T20:36:28.354Z,53.80
2022-11-05T20:38:58.538Z,53.70
2022-11-05T20:41:26.985Z,53.80
2022-11-05T20:43:55.192Z,53.70
2022-11-05T20:46:24.863Z,53.80
2022-11-05T20:48:54.298Z,53.80
2022-11-05T20:51:25.283Z,53.70
2022-11-05T20:53:56.529Z,53.80
2022-11-05T20:56:26.688Z,53.90
2022-11-05T20:58:57.813Z,53.90
2022-11-05T21:01:28.634Z,53.90
2022-11-05T21:03:57.161Z,54.00
2022-11-05T21:06:25.443Z,54.00
2022-11-05T21:08:53.925Z,54.00
2022-11-05T21:11:22.659Z,54.10
2022-11-05T21:13:50.873Z,54.00
2022-11-05T21:16:20.500Z,54.10
2022-11-05T21:18:49.906Z,54.10
2022-11-05T21:21:19.671Z,54.10
2022-11-05T21:23:47.922Z,54.10
2022-11-05T21:26:17.803Z,54.20
2022-11-05T21:28:45.898Z,54.20
2022-11-05T21:31:13.797Z,54.20
2022-11-05T21:33:41.756Z,54.10
2022-11-05T21:36:12.756Z,54.10
2022-11-05T21:38:41.702Z,54.20
2022-11-05T21:41:11.595Z,54.20
2022-11-05T21:43:41.633Z,54.10
2022-11-05T21:46:09.601Z,54.10
2022-11-05T21:48:37.821Z,54.10
2022-11-05T21:51:23.570Z,54.20
2022-11-05T21:54:10.178Z,54.20
2022-11-05T21:56:56.238Z,54.10
2022-11-05T21:59:43.484Z,54.50
2022-11-05T22:02:13.776Z,54.00
2022-11-05T22:04:43.650Z,54.00
2022-11-05T22:07:13.697Z,54.00
2022-11-05T22:09:43.221Z,54.00
2022-11-05T22:12:11.144Z,53.90
2022-11-05T22:14:39.150Z,53.80
2022-11-05T22:17:07.587Z,53.80
2022-11-05T22:19:36.208Z,53.80
2022-11-05T22:22:05.613Z,53.70
2022-11-05T22:24:34.741Z,53.60
2022-11-05T22:27:05.949Z,53.60
2022-11-05T22:29:33.837Z,53.60
2022-11-05T22:32:02.037Z,53.50
2022-11-05T22:34:29.918Z,53.50
2022-11-05T22:36:57.939Z,53.40
2022-11-05T22:39:25.860Z,53.40
2022-11-05T22:41:55.419Z,53.40
2022-11-05T22:44:25.672Z,53.30
2022-11-05T22:46:53.668Z,53.20
2022-11-05T22:49:21.581Z,53.10
2022-11-05T22:51:49.503Z,53.10
2022-11-05T22:54:17.520Z,53.00
2022-11-05T22:56:45.756Z,53.00
2022-11-05T22:59:15.635Z,53.00
2022-11-05T23:01:45.930Z,53.00
2022-11-05T23:04:15.024Z,53.10
2022-11-05T23:07:00.799Z,53.00
2022-11-05T23:09:48.378Z,53.00
2022-11-05T23:12:27.040Z,53.00
2022-11-05T23:14:56.712Z,53.00
2022-11-05T23:17:44.319Z,53.00
2022-11-05T23:20:31.940Z,53.00
2022-11-05T23:23:17.480Z,52.90
2022-11-05T23:25:45.564Z,52.90
2022-11-05T23:28:14.855Z,52.90
2022-11-05T23:30:59.027Z,52.90
2022-11-05T23:33:28.596Z,52.80
2022-11-05T23:36:13.882Z,52.70
2022-11-05T23:38:41.802Z,52.60
2022-11-05T23:41:27.327Z,52.60
2022-11-05T23:44:12.956Z,52.50
2022-11-05T23:46:58.536Z,52.50
2022-11-05T23:49:28.833Z,53.20
2022-11-05T23:51:56.721Z,53.30
2022-11-05T23:54:24.680Z,53.40
2022-11-05T23:56:52.588Z,53.50
2022-11-05T23:59:20.492Z,53.40
